sensor_id;sensor_type;location;lat;lon;timestamp;pressure;altitude;pressure_sealevel;temperature;humidity
76611;BME280;65503;48.534;9.062;2023-03-12T00:01:57;96575.44;;;1.25;60.72
76611;BME280;65503;48.534;9.062;2023-03-12T00:04:25;96572.84;;;1.25;60.75
76611;BME280;65503;48.534;9.062;2023-03-12T00:06:52;96577.38;;;1.23;60.93
76611;BME280;65503;48.534;9.062;2023-03-12T00:09:19;96572.22;;;1.23;61.25
76611;BME280;65503;48.534;9.062;2023-03-12T00:11:45;96577.72;;;1.20;61.40
76611;BME280;65503;48.534;9.062;2023-03-12T00:14:11;96576.16;;;1.19;61.52
76611;BME280;65503;48.534;9.062;2023-03-12T00:16:38;96575.16;;;1.20;61.30
76611;BME280;65503;48.534;9.062;2023-03-12T00:19:04;96572.56;;;1.20;61.60
76611;BME280;65503;48.534;9.062;2023-03-12T00:21:31;96576.16;;;1.19;61.29
76611;BME280;65503;48.534;9.062;2023-03-12T00:23:57;96572.75;;;1.18;61.23
76611;BME280;65503;48.534;9.062;2023-03-12T00:26:25;96576.16;;;1.19;61.60
76611;BME280;65503;48.534;9.062;2023-03-12T00:28:51;96567.38;;;1.20;61.57
76611;BME280;65503;48.534;9.062;2023-03-12T00:31:24;96569.97;;;1.20;61.65
76611;BME280;65503;48.534;9.062;2023-03-12T00:33:55;96564.53;;;1.15;61.90
76611;BME280;65503;48.534;9.062;2023-03-12T00:36:23;96567.13;;;1.15;61.64
76611;BME280;65503;48.534;9.062;2023-03-12T00:38:52;96564.91;;;1.12;61.59
76611;BME280;65503;48.534;9.062;2023-03-12T00:41:20;96566.25;;;1.08;62.07
76611;BME280;65503;48.534;9.062;2023-03-12T00:43:48;96565.19;;;1.02;62.07
76611;BME280;65503;48.534;9.062;2023-03-12T00:46:15;96572.50;;;0.99;61.88
76611;BME280;65503;48.534;9.062;2023-03-12T00:48:43;96566.69;;;0.97;62.45
76611;BME280;65503;48.534;9.062;2023-03-12T00:51:10;96571.06;;;0.96;62.70
76611;BME280;65503;48.534;9.062;2023-03-12T00:53:37;96562.25;;;0.91;62.47
76611;BME280;65503;48.534;9.062;2023-03-12T00:56:04;96558.63;;;0.92;62.79
76611;BME280;65503;48.534;9.062;2023-03-12T00:58:31;96564.53;;;0.86;63.31
76611;BME280;65503;48.534;9.062;2023-03-12T01:00:58;96559.34;;;0.86;63.43
76611;BME280;65503;48.534;9.062;2023-03-12T01:03:24;96549.38;;;0.82;63.61
76611;BME280;65503;48.534;9.062;2023-03-12T01:05:51;96565.53;;;0.85;63.28
76611;BME280;65503;48.534;9.062;2023-03-12T01:08:21;96564.09;;;0.82;63.99
76611;BME280;65503;48.534;9.062;2023-03-12T01:10:47;96551.78;;;0.84;63.84
76611;BME280;65503;48.534;9.062;2023-03-12T01:13:14;96561.88;;;0.94;63.69
76611;BME280;65503;48.534;9.062;2023-03-12T01:15:40;96561.16;;;1.00;63.47
76611;BME280;65503;48.534;9.062;2023-03-12T01:18:07;96558.53;;;1.14;63.42
76611;BME280;65503;48.534;9.062;2023-03-12T01:20:33;96561.28;;;1.28;62.84
76611;BME280;65503;48.534;9.062;2023-03-12T01:23:00;96555.09;;;1.43;62.50
76611;BME280;65503;48.534;9.062;2023-03-12T01:25:26;96551.03;;;1.55;62.33
76611;BME280;65503;48.534;9.062;2023-03-12T01:27:53;96551.53;;;1.65;61.75
76611;BME280;65503;48.534;9.062;2023-03-12T01:30:19;96556.63;;;1.74;61.52
76611;BME280;65503;48.534;9.062;2023-03-12T01:32:46;96552.91;;;1.83;61.11
76611;BME280;65503;48.534;9.062;2023-03-12T01:35:12;96560.59;;;1.91;61.13
76611;BME280;65503;48.534;9.062;2023-03-12T01:37:39;96566.16;;;1.88;60.78
76611;BME280;65503;48.534;9.062;2023-03-12T01:40:05;96573.31;;;1.86;61.39
76611;BME280;65503;48.534;9.062;2023-03-12T01:42:32;96573.66;;;1.83;61.75
76611;BME280;65503;48.534;9.062;2023-03-12T01:45:01;96577.63;;;1.79;61.62
76611;BME280;65503;48.534;9.062;2023-03-12T01:47:29;96570.31;;;1.89;60.98
76611;BME280;65503;48.534;9.062;2023-03-12T01:49:59;96578.75;;;1.91;61.09
76611;BME280;65503;48.534;9.062;2023-03-12T01:52:29;96573.44;;;1.99;60.77
76611;BME280;65503;48.534;9.062;2023-03-12T01:55:09;96571.09;;;2.04;60.61
76611;BME280;65503;48.534;9.062;2023-03-12T01:57:48;96573.53;;;2.12;60.66
76611;BME280;65503;48.534;9.062;2023-03-12T02:00:21;96571.19;;;2.17;60.47
76611;BME280;65503;48.534;9.062;2023-03-12T02:02:50;96570.84;;;2.20;60.51
76611;BME280;65503;48.534;9.062;2023-03-12T02:07:59;96575.41;;;1.97;60.68
76611;BME280;65503;48.534;9.062;2023-03-12T02:10:26;96574.66;;;2.03;60.78
76611;BME280;65503;48.534;9.062;2023-03-12T02:12:52;96562.69;;;2.02;60.21
76611;BME280;65503;48.534;9.062;2023-03-12T02:15:19;96562.25;;;1.98;60.67
76611;BME280;65503;48.534;9.062;2023-03-12T02:17:45;96566.56;;;1.91;61.25
76611;BME280;65503;48.534;9.062;2023-03-12T02:20:36;96567.63;;;1.97;60.95
76611;BME280;65503;48.534;9.062;2023-03-12T02:23:10;96569.47;;;2.03;61.15
76611;BME280;65503;48.534;9.062;2023-03-12T02:25:46;96570.94;;;2.12;60.37
76611;BME280;65503;48.534;9.062;2023-03-12T02:28:17;96573.53;;;2.12;60.25
76611;BME280;65503;48.534;9.062;2023-03-12T02:30:47;96569.91;;;2.06;60.30
76611;BME280;65503;48.534;9.062;2023-03-12T02:33:15;96564.34;;;2.10;60.27
76611;BME280;65503;48.534;9.062;2023-03-12T02:35:42;96569.53;;;2.10;60.29
76611;BME280;65503;48.534;9.062;2023-03-12T02:38:45;96571.75;;;1.91;59.90
76611;BME280;65503;48.534;9.062;2023-03-12T02:44:10;96569.03;;;1.99;60.07
76611;BME280;65503;48.534;9.062;2023-03-12T02:46:43;96567.69;;;2.03;60.15
76611;BME280;65503;48.534;9.062;2023-03-12T02:49:10;96569.03;;;1.99;59.56
76611;BME280;65503;48.534;9.062;2023-03-12T02:51:39;96573.47;;;2.05;60.15
76611;BME280;65503;48.534;9.062;2023-03-12T02:54:07;96568.91;;;2.07;59.70
76611;BME280;65503;48.534;9.062;2023-03-12T02:56:34;96564.78;;;2.13;59.73
76611;BME280;65503;48.534;9.062;2023-03-12T02:59:01;96573.78;;;2.17;59.78
76611;BME280;65503;48.534;9.062;2023-03-12T03:01:30;96573.38;;;2.14;59.51
76611;BME280;65503;48.534;9.062;2023-03-12T03:04:00;96563.47;;;2.24;59.79
76611;BME280;65503;48.534;9.062;2023-03-12T03:06:27;96565.13;;;2.31;59.64
76611;BME280;65503;48.534;9.062;2023-03-12T03:08:54;96558.22;;;2.38;59.86
76611;BME280;65503;48.534;9.062;2023-03-12T03:11:20;96556.25;;;2.47;59.39
76611;BME280;65503;48.534;9.062;2023-03-12T03:13:53;96559.13;;;2.59;59.56
76611;BME280;65503;48.534;9.062;2023-03-12T03:16:21;96547.13;;;2.58;59.45
76611;BME280;65503;48.534;9.062;2023-03-12T03:18:48;96548.19;;;2.63;59.34
76611;BME280;65503;48.534;9.062;2023-03-12T03:21:15;96542.38;;;2.61;59.23
76611;BME280;65503;48.534;9.062;2023-03-12T03:23:43;96535.78;;;2.59;59.34
76611;BME280;65503;48.534;9.062;2023-03-12T03:26:10;96538.25;;;2.45;59.96
76611;BME280;65503;48.534;9.062;2023-03-12T03:28:37;96531.50;;;2.44;59.93
76611;BME280;65503;48.534;9.062;2023-03-12T03:31:04;96537.91;;;2.48;59.51
76611;BME280;65503;48.534;9.062;2023-03-12T03:33:32;96529.88;;;2.43;60.03
76611;BME280;65503;48.534;9.062;2023-03-12T03:36:00;96524.69;;;2.43;59.46
76611;BME280;65503;48.534;9.062;2023-03-12T03:38:28;96518.50;;;2.44;59.81
76611;BME280;65503;48.534;9.062;2023-03-12T03:40:55;96522.91;;;2.44;60.09
76611;BME280;65503;48.534;9.062;2023-03-12T03:43:22;96523.84;;;2.36;59.96
76611;BME280;65503;48.534;9.062;2023-03-12T03:45:56;96526.66;;;2.41;60.01
76611;BME280;65503;48.534;9.062;2023-03-12T03:48:23;96521.88;;;2.38;60.20
76611;BME280;65503;48.534;9.062;2023-03-12T03:50:49;96527.06;;;2.38;60.47
76611;BME280;65503;48.534;9.062;2023-03-12T03:53:16;96545.47;;;2.43;60.27
76611;BME280;65503;48.534;9.062;2023-03-12T03:55:45;96550.25;;;2.46;60.68
76611;BME280;65503;48.534;9.062;2023-03-12T03:58:11;96544.13;;;2.54;60.51
76611;BME280;65503;48.534;9.062;2023-03-12T04:00:38;96541.41;;;2.69;60.91
76611;BME280;65503;48.534;9.062;2023-03-12T04:03:04;96542.88;;;2.78;60.21
76611;BME280;65503;48.534;9.062;2023-03-12T04:05:31;96548.91;;;2.78;59.62
76611;BME280;65503;48.534;9.062;2023-03-12T04:07:57;96536.94;;;2.84;60.37
76611;BME280;65503;48.534;9.062;2023-03-12T04:10:28;96538.88;;;2.75;59.75
76611;BME280;65503;48.534;9.062;2023-03-12T04:12:55;96533.41;;;2.64;60.34
76611;BME280;65503;48.534;9.062;2023-03-12T04:15:21;96536.44;;;2.74;60.52
76611;BME280;65503;48.534;9.062;2023-03-12T04:17:48;96538.88;;;2.75;60.01
76611;BME280;65503;48.534;9.062;2023-03-12T04:20:15;96530.09;;;2.76;60.86
76611;BME280;65503;48.534;9.062;2023-03-12T04:22:41;96534.34;;;2.84;60.45
76611;BME280;65503;48.534;9.062;2023-03-12T04:25:08;96537.75;;;2.91;60.53
76611;BME280;65503;48.534;9.062;2023-03-12T04:27:34;96542.19;;;2.97;60.18
76611;BME280;65503;48.534;9.062;2023-03-12T04:30:01;96541.41;;;3.03;60.27
76611;BME280;65503;48.534;9.062;2023-03-12T04:32:27;96541.47;;;3.16;60.14
76611;BME280;65503;48.534;9.062;2023-03-12T04:34:54;96535.72;;;3.27;59.73
76611;BME280;65503;48.534;9.062;2023-03-12T04:37:20;96532.28;;;3.20;59.29
76611;BME280;65503;48.534;9.062;2023-03-12T04:39:47;96538.22;;;3.01;59.96
76611;BME280;65503;48.534;9.062;2023-03-12T04:42:13;96535.47;;;3.16;59.79
76611;BME280;65503;48.534;9.062;2023-03-12T04:44:39;96535.09;;;3.19;59.80
76611;BME280;65503;48.534;9.062;2023-03-12T04:47:07;96532.91;;;3.22;59.20
76611;BME280;65503;48.534;9.062;2023-03-12T04:49:33;96523.94;;;3.31;59.33
76611;BME280;65503;48.534;9.062;2023-03-12T04:52:00;96524.78;;;3.39;58.70
76611;BME280;65503;48.534;9.062;2023-03-12T04:54:27;96510.81;;;3.46;57.59
76611;BME280;65503;48.534;9.062;2023-03-12T04:56:53;96510.81;;;3.46;58.56
76611;BME280;65503;48.534;9.062;2023-03-12T04:59:19;96514.59;;;3.50;58.11
76611;BME280;65503;48.534;9.062;2023-03-12T05:01:46;96515.34;;;3.38;58.62
76611;BME280;65503;48.534;9.062;2023-03-12T05:04:12;96520.75;;;3.36;59.59
76611;BME280;65503;48.534;9.062;2023-03-12T05:06:39;96521.19;;;3.40;60.10
76611;BME280;65503;48.534;9.062;2023-03-12T05:09:06;96515.19;;;3.46;59.73
76611;BME280;65503;48.534;9.062;2023-03-12T05:11:32;96519.00;;;3.50;59.78
76611;BME280;65503;48.534;9.062;2023-03-12T05:13:59;96517.59;;;3.54;59.53
76611;BME280;65503;48.534;9.062;2023-03-12T05:16:25;96514.88;;;3.75;59.02
76611;BME280;65503;48.534;9.062;2023-03-12T05:18:53;96509.66;;;3.75;58.43
76611;BME280;65503;48.534;9.062;2023-03-12T05:21:19;96496.44;;;3.77;58.60
76611;BME280;65503;48.534;9.062;2023-03-12T05:23:46;96500.06;;;3.76;58.64
76611;BME280;65503;48.534;9.062;2023-03-12T05:26:17;96499.84;;;3.64;58.96
76611;BME280;65503;48.534;9.062;2023-03-12T05:28:44;96499.63;;;3.65;59.38
76611;BME280;65503;48.534;9.062;2023-03-12T05:31:11;96499.22;;;3.62;59.32
76611;BME280;65503;48.534;9.062;2023-03-12T05:33:38;96511.03;;;3.58;59.86
76611;BME280;65503;48.534;9.062;2023-03-12T05:36:05;96513.59;;;3.51;59.68
76611;BME280;65503;48.534;9.062;2023-03-12T05:38:32;96526.81;;;3.50;59.43
76611;BME280;65503;48.534;9.062;2023-03-12T05:40:58;96514.38;;;3.39;60.67
76611;BME280;65503;48.534;9.062;2023-03-12T05:43:26;96519.16;;;3.35;61.28
76611;BME280;65503;48.534;9.062;2023-03-12T05:45:53;96519.19;;;3.42;62.01
76611;BME280;65503;48.534;9.062;2023-03-12T05:48:19;96514.41;;;3.52;62.23
76611;BME280;65503;48.534;9.062;2023-03-12T05:50:46;96528.84;;;3.61;62.25
76611;BME280;65503;48.534;9.062;2023-03-12T05:53:12;96521.66;;;3.63;62.00
76611;BME280;65503;48.534;9.062;2023-03-12T05:55:39;96517.25;;;3.70;61.69
76611;BME280;65503;48.534;9.062;2023-03-12T05:58:06;96520.47;;;3.79;61.98
76611;BME280;65503;48.534;9.062;2023-03-12T06:00:33;96523.66;;;3.74;62.16
76611;BME280;65503;48.534;9.062;2023-03-12T06:03:04;96524.66;;;3.73;62.48
76611;BME280;65503;48.534;9.062;2023-03-12T06:05:31;96525.66;;;3.72;62.56
76611;BME280;65503;48.534;9.062;2023-03-12T06:07:58;96527.66;;;3.70;62.54
76611;BME280;65503;48.534;9.062;2023-03-12T06:10:25;96529.25;;;3.71;62.74
76611;BME280;65503;48.534;9.062;2023-03-12T06:12:52;96526.84;;;3.76;62.23
76611;BME280;65503;48.534;9.062;2023-03-12T06:15:18;96540.09;;;3.81;62.18
76611;BME280;65503;48.534;9.062;2023-03-12T06:17:44;96527.50;;;3.91;62.20
76611;BME280;65503;48.534;9.062;2023-03-12T06:20:11;96542.69;;;3.81;61.56
76611;BME280;65503;48.534;9.062;2023-03-12T06:22:38;96545.09;;;3.83;61.65
76611;BME280;65503;48.534;9.062;2023-03-12T06:25:04;96536.09;;;3.85;62.26
76611;BME280;65503;48.534;9.062;2023-03-12T06:27:31;96532.50;;;3.86;60.91
76611;BME280;65503;48.534;9.062;2023-03-12T06:29:57;96531.28;;;3.82;61.68
76611;BME280;65503;48.534;9.062;2023-03-12T06:32:24;96532.91;;;3.90;61.76
76611;BME280;65503;48.534;9.062;2023-03-12T06:34:51;96529.91;;;3.86;62.60
76611;BME280;65503;48.534;9.062;2023-03-12T06:37:17;96539.66;;;3.71;63.22
76611;BME280;65503;48.534;9.062;2023-03-12T06:39:44;96529.69;;;3.74;63.57
76611;BME280;65503;48.534;9.062;2023-03-12T06:42:10;96534.88;;;3.74;64.01
76611;BME280;65503;48.534;9.062;2023-03-12T06:44:38;96524.88;;;3.78;64.54
76611;BME280;65503;48.534;9.062;2023-03-12T06:47:04;96525.28;;;3.75;64.28
76611;BME280;65503;48.534;9.062;2023-03-12T06:49:31;96525.47;;;3.80;64.83
76611;BME280;65503;48.534;9.062;2023-03-12T06:51:58;96522.47;;;3.83;64.55
76611;BME280;65503;48.534;9.062;2023-03-12T06:54:24;96524.88;;;3.78;64.36
76611;BME280;65503;48.534;9.062;2023-03-12T06:56:51;96528.88;;;3.81;64.45
76611;BME280;65503;48.534;9.062;2023-03-12T06:59:18;96528.66;;;3.69;65.34
76611;BME280;65503;48.534;9.062;2023-03-12T07:01:47;96533.09;;;3.88;65.12
76611;BME280;65503;48.534;9.062;2023-03-12T07:04:14;96533.72;;;3.97;65.48
76611;BME280;65503;48.534;9.062;2023-03-12T07:06:40;96538.72;;;3.98;65.75
76611;BME280;65503;48.534;9.062;2023-03-12T07:09:07;96544.94;;;4.04;64.82
76611;BME280;65503;48.534;9.062;2023-03-12T07:11:33;96542.50;;;3.89;65.01
76611;BME280;65503;48.534;9.062;2023-03-12T07:14:01;96547.72;;;4.02;64.88
76611;BME280;65503;48.534;9.062;2023-03-12T07:16:28;96540.50;;;4.04;64.54
76611;BME280;65503;48.534;9.062;2023-03-12T07:18:56;96551.72;;;4.05;65.02
76611;BME280;65503;48.534;9.062;2023-03-12T07:21:22;96556.34;;;4.03;65.38
76611;BME280;65503;48.534;9.062;2023-03-12T07:23:49;96550.56;;;4.21;65.16
76611;BME280;65503;48.534;9.062;2023-03-12T07:26:16;96544.13;;;4.30;64.53
76611;BME280;65503;48.534;9.062;2023-03-12T07:28:42;96552.94;;;4.42;64.81
76611;BME280;65503;48.534;9.062;2023-03-12T07:31:09;96548.56;;;4.49;64.83
76611;BME280;65503;48.534;9.062;2023-03-12T07:33:35;96555.75;;;4.60;64.21
76611;BME280;65503;48.534;9.062;2023-03-12T07:36:03;96559.34;;;4.66;64.70
76611;BME280;65503;48.534;9.062;2023-03-12T07:38:30;96558.31;;;4.73;64.43
76611;BME280;65503;48.534;9.062;2023-03-12T07:40:57;96562.53;;;4.87;64.29
76611;BME280;65503;48.534;9.062;2023-03-12T07:43:24;96558.91;;;4.95;64.17
76611;BME280;65503;48.534;9.062;2023-03-12T07:45:50;96568.50;;;5.08;63.81
76611;BME280;65503;48.534;9.062;2023-03-12T07:48:17;96552.00;;;5.27;63.43
76611;BME280;65503;48.534;9.062;2023-03-12T07:50:45;96554.75;;;5.45;62.90
76611;BME280;65503;48.534;9.062;2023-03-12T07:53:11;96539.78;;;5.65;61.86
76611;BME280;65503;48.534;9.062;2023-03-12T07:55:38;96549.31;;;5.91;61.92
76611;BME280;65503;48.534;9.062;2023-03-12T07:58:04;96548.75;;;6.14;61.10
76611;BME280;65503;48.534;9.062;2023-03-12T08:00:31;96546.53;;;6.42;60.21
76611;BME280;65503;48.534;9.062;2023-03-12T08:02:57;96538.53;;;6.37;59.34
76611;BME280;65503;48.534;9.062;2023-03-12T08:05:24;96544.09;;;6.47;58.22
76611;BME280;65503;48.534;9.062;2023-03-12T08:07:52;96549.56;;;6.64;58.02
76611;BME280;65503;48.534;9.062;2023-03-12T08:10:19;96552.69;;;6.73;58.25
76611;BME280;65503;48.534;9.062;2023-03-12T08:12:47;96554.28;;;6.74;58.58
76611;BME280;65503;48.534;9.062;2023-03-12T08:15:14;96550.97;;;6.85;58.34
76611;BME280;65503;48.534;9.062;2023-03-12T08:17:41;96547.38;;;7.04;56.55
76611;BME280;65503;48.534;9.062;2023-03-12T08:20:08;96550.56;;;7.24;56.26
76611;BME280;65503;48.534;9.062;2023-03-12T08:22:36;96557.41;;;7.25;56.60
76611;BME280;65503;48.534;9.062;2023-03-12T08:25:03;96554.50;;;7.33;57.07
76611;BME280;65503;48.534;9.062;2023-03-12T08:27:30;96550.53;;;7.61;56.15
76611;BME280;65503;48.534;9.062;2023-03-12T08:29:57;96552.41;;;7.72;55.84
76611;BME280;65503;48.534;9.062;2023-03-12T08:32:24;96556.19;;;7.76;55.85
76611;BME280;65503;48.534;9.062;2023-03-12T08:34:50;96562.09;;;8.01;55.94
76611;BME280;65503;48.534;9.062;2023-03-12T08:37:17;96559.59;;;8.06;54.99
76611;BME280;65503;48.534;9.062;2023-03-12T08:39:43;96560.31;;;8.13;54.68
76611;BME280;65503;48.534;9.062;2023-03-12T08:42:10;96558.78;;;8.36;54.11
76611;BME280;65503;48.534;9.062;2023-03-12T08:44:36;96566.44;;;8.37;54.59
76611;BME280;65503;48.534;9.062;2023-03-12T08:47:03;96567.13;;;8.44;54.63
76611;BME280;65503;48.534;9.062;2023-03-12T08:49:29;96565.44;;;8.73;54.60
76611;BME280;65503;48.534;9.062;2023-03-12T08:51:56;96570.25;;;8.76;54.46
76611;BME280;65503;48.534;9.062;2023-03-12T08:54:22;96563.72;;;9.02;54.33
76611;BME280;65503;48.534;9.062;2023-03-12T08:56:50;96568.75;;;9.15;53.50
76611;BME280;65503;48.534;9.062;2023-03-12T08:59:18;96566.47;;;9.07;53.28
76611;BME280;65503;48.534;9.062;2023-03-12T09:01:45;96566.13;;;9.27;52.61
76611;BME280;65503;48.534;9.062;2023-03-12T09:04:12;96567.09;;;10.17;52.08
76611;BME280;65503;48.534;9.062;2023-03-12T09:06:38;96579.91;;;10.42;50.23
76611;BME280;65503;48.534;9.062;2023-03-12T09:09:05;96566.63;;;10.37;50.40
76611;BME280;65503;48.534;9.062;2023-03-12T09:11:35;96571.56;;;10.17;50.33
76611;BME280;65503;48.534;9.062;2023-03-12T09:14:02;96573.19;;;10.34;51.54
76611;BME280;65503;48.534;9.062;2023-03-12T09:16:48;96575.66;;;10.41;49.81
76611;BME280;65503;48.534;9.062;2023-03-12T09:19:15;96587.53;;;10.60;49.85
76611;BME280;65503;48.534;9.062;2023-03-12T09:21:42;96588.03;;;10.91;50.83
76611;BME280;65503;48.534;9.062;2023-03-12T09:24:09;96593.28;;;10.91;50.37
76611;BME280;65503;48.534;9.062;2023-03-12T09:26:36;96596.00;;;10.96;50.66
76611;BME280;65503;48.534;9.062;2023-03-12T09:29:02;96594.88;;;10.92;51.12
76611;BME280;65503;48.534;9.062;2023-03-12T09:31:29;96595.19;;;10.78;52.42
76611;BME280;65503;48.534;9.062;2023-03-12T09:33:55;96593.94;;;10.98;52.67
76611;BME280;65503;48.534;9.062;2023-03-12T09:36:22;96590.25;;;10.99;53.22
76611;BME280;65503;48.534;9.062;2023-03-12T09:38:48;96593.25;;;11.24;53.79
76611;BME280;65503;48.534;9.062;2023-03-12T09:41:24;96595.03;;;11.79;52.63
76611;BME280;65503;48.534;9.062;2023-03-12T09:43:59;96600.88;;;12.93;51.44
76611;BME280;65503;48.534;9.062;2023-03-12T09:46:36;96606.53;;;12.70;50.71
76611;BME280;65503;48.534;9.062;2023-03-12T09:49:10;96605.00;;;12.79;50.96
76611;BME280;65503;48.534;9.062;2023-03-12T09:51:43;96609.19;;;12.48;52.90
76611;BME280;65503;48.534;9.062;2023-03-12T09:54:32;96602.91;;;12.81;52.67
76611;BME280;65503;48.534;9.062;2023-03-12T09:57:03;96605.59;;;13.70;51.01
76611;BME280;65503;48.534;9.062;2023-03-12T09:59:34;96603.66;;;14.23;48.46
76611;BME280;65503;48.534;9.062;2023-03-12T10:02:04;96608.41;;;14.16;48.16
76611;BME280;65503;48.534;9.062;2023-03-12T10:04:52;96606.38;;;15.04;47.56
76611;BME280;65503;48.534;9.062;2023-03-12T10:07:35;96610.06;;;15.58;46.27
76611;BME280;65503;48.534;9.062;2023-03-12T10:10:20;96611.66;;;15.39;45.98
76611;BME280;65503;48.534;9.062;2023-03-12T10:13:22;96615.41;;;14.87;46.84
76611;BME280;65503;48.534;9.062;2023-03-12T10:21:23;96613.81;;;14.46;49.33
76611;BME280;65503;48.534;9.062;2023-03-12T10:26:54;96616.81;;;13.97;50.94
76611;BME280;65503;48.534;9.062;2023-03-12T10:29:24;96625.31;;;14.10;52.01
76611;BME280;65503;48.534;9.062;2023-03-12T10:32:01;96620.66;;;13.70;53.11
76611;BME280;65503;48.534;9.062;2023-03-12T10:37:20;96623.56;;;13.68;54.14
76611;BME280;65503;48.534;9.062;2023-03-12T10:39:48;96614.72;;;13.99;53.19
76611;BME280;65503;48.534;9.062;2023-03-12T10:42:27;96619.81;;;14.36;52.45
76611;BME280;65503;48.534;9.062;2023-03-12T10:45:22;96624.41;;;14.56;52.56
76611;BME280;65503;48.534;9.062;2023-03-12T10:47:54;96630.47;;;13.79;54.56
76611;BME280;65503;48.534;9.062;2023-03-12T10:50:28;96639.66;;;13.19;56.67
76611;BME280;65503;48.534;9.062;2023-03-12T10:58:34;96641.34;;;12.40;58.98
76611;BME280;65503;48.534;9.062;2023-03-12T11:01:02;96646.66;;;12.18;59.74
76611;BME280;65503;48.534;9.062;2023-03-12T11:03:29;96642.41;;;12.17;59.79
76611;BME280;65503;48.534;9.062;2023-03-12T11:05:59;96647.31;;;12.89;57.74
76611;BME280;65503;48.534;9.062;2023-03-12T11:08:31;96649.81;;;12.69;57.55
76611;BME280;65503;48.534;9.062;2023-03-12T11:11:00;96652.84;;;12.56;58.08
76611;BME280;65503;48.534;9.062;2023-03-12T11:13:35;96648.63;;;12.60;58.09
76611;BME280;65503;48.534;9.062;2023-03-12T11:19:01;96662.38;;;13.15;56.73
76611;BME280;65503;48.534;9.062;2023-03-12T11:21:32;96666.31;;;13.13;56.17
76611;BME280;65503;48.534;9.062;2023-03-12T11:24:09;96659.94;;;12.82;56.68
76611;BME280;65503;48.534;9.062;2023-03-12T11:26:50;96657.72;;;12.69;57.04
76611;BME280;65503;48.534;9.062;2023-03-12T11:29:25;96656.41;;;12.71;57.40
76611;BME280;65503;48.534;9.062;2023-03-12T11:34:47;96672.16;;;12.61;58.77
76611;BME280;65503;48.534;9.062;2023-03-12T11:37:35;96670.97;;;12.47;58.38
76611;BME280;65503;48.534;9.062;2023-03-12T11:51:32;96658.19;;;14.24;53.12
76611;BME280;65503;48.534;9.062;2023-03-12T11:57:18;96646.97;;;13.96;53.27
76611;BME280;65503;48.534;9.062;2023-03-12T12:00:09;96653.34;;;14.00;53.37
76611;BME280;65503;48.534;9.062;2023-03-12T12:03:03;96659.56;;;13.79;53.98
76611;BME280;65503;48.534;9.062;2023-03-12T12:08:37;96650.56;;;13.75;53.81
76611;BME280;65503;48.534;9.062;2023-03-12T12:16:32;96637.34;;;14.47;51.84
76611;BME280;65503;48.534;9.062;2023-03-12T12:19:22;96631.56;;;14.81;50.80
76611;BME280;65503;48.534;9.062;2023-03-12T12:22:01;96628.16;;;14.91;50.58
76611;BME280;65503;48.534;9.062;2023-03-12T12:25:20;96626.81;;;14.83;50.88
76611;BME280;65503;48.534;9.062;2023-03-12T12:28:16;96619.13;;;14.86;50.49
76611;BME280;65503;48.534;9.062;2023-03-12T12:33:45;96605.31;;;14.54;50.99
76611;BME280;65503;48.534;9.062;2023-03-12T12:36:17;96605.88;;;14.76;51.13
76611;BME280;65503;48.534;9.062;2023-03-12T12:39:00;96602.72;;;14.89;50.23
76611;BME280;65503;48.534;9.062;2023-03-12T12:41:34;96599.53;;;14.77;50.10
76611;BME280;65503;48.534;9.062;2023-03-12T12:44:12;96585.19;;;14.48;50.40
76611;BME280;65503;48.534;9.062;2023-03-12T12:46:48;96592.63;;;14.66;49.78
76611;BME280;65503;48.534;9.062;2023-03-12T12:49:25;96588.38;;;14.40;49.53
76611;BME280;65503;48.534;9.062;2023-03-12T12:51:57;96587.47;;;14.09;50.70
76611;BME280;65503;48.534;9.062;2023-03-12T12:57:56;96597.22;;;13.93;50.57
76611;BME280;65503;48.534;9.062;2023-03-12T13:00:44;96591.19;;;14.08;50.66
76611;BME280;65503;48.534;9.062;2023-03-12T13:03:20;96593.69;;;14.55;48.87
76611;BME280;65503;48.534;9.062;2023-03-12T13:05:53;96592.84;;;15.30;46.49
76611;BME280;65503;48.534;9.062;2023-03-12T13:19:06;96598.47;;;14.94;46.81
76611;BME280;65503;48.534;9.062;2023-03-12T13:25:17;96600.56;;;14.61;47.45
76611;BME280;65503;48.534;9.062;2023-03-12T13:27:57;96609.56;;;14.40;48.05
76611;BME280;65503;48.534;9.062;2023-03-12T13:35:37;96614.41;;;13.96;49.00
76611;BME280;65503;48.534;9.062;2023-03-12T13:38:06;96617.34;;;13.94;49.75
76611;BME280;65503;48.534;9.062;2023-03-12T13:40:51;96633.63;;;14.38;49.55
76611;BME280;65503;48.534;9.062;2023-03-12T13:43:40;96626.16;;;14.20;52.06
76611;BME280;65503;48.534;9.062;2023-03-12T13:46:21;96628.38;;;13.81;53.62
76611;BME280;65503;48.534;9.062;2023-03-12T13:48:56;96631.44;;;14.20;52.64
76611;BME280;65503;48.534;9.062;2023-03-12T13:51:25;96631.84;;;14.74;51.51
76611;BME280;65503;48.534;9.062;2023-03-12T13:53:55;96632.88;;;15.34;50.18
76611;BME280;65503;48.534;9.062;2023-03-12T13:56:27;96630.69;;;15.77;49.25
76611;BME280;65503;48.534;9.062;2023-03-12T13:58:58;96634.63;;;15.84;48.31
76611;BME280;65503;48.534;9.062;2023-03-12T14:01:39;96625.38;;;15.77;48.58
76611;BME280;65503;48.534;9.062;2023-03-12T14:04:12;96629.03;;;15.91;49.17
76611;BME280;65503;48.534;9.062;2023-03-12T14:18:36;96627.84;;;13.79;52.17
76611;BME280;65503;48.534;9.062;2023-03-12T14:21:09;96632.47;;;13.52;53.30
76611;BME280;65503;48.534;9.062;2023-03-12T14:23:45;96620.94;;;13.73;52.57
76611;BME280;65503;48.534;9.062;2023-03-12T14:26:19;96616.72;;;13.72;52.47
76611;BME280;65503;48.534;9.062;2023-03-12T14:28:49;96622.66;;;14.04;52.13
76611;BME280;65503;48.534;9.062;2023-03-12T14:31:20;96628.06;;;14.35;51.04
76611;BME280;65503;48.534;9.062;2023-03-12T14:33:57;96633.84;;;14.32;50.74
76611;BME280;65503;48.534;9.062;2023-03-12T14:36:49;96622.81;;;14.45;50.71
76611;BME280;65503;48.534;9.062;2023-03-12T14:39:27;96624.25;;;14.05;50.87
76611;BME280;65503;48.534;9.062;2023-03-12T14:42:03;96632.72;;;14.07;51.18
76611;BME280;65503;48.534;9.062;2023-03-12T14:44:32;96617.84;;;13.96;50.56
76611;BME280;65503;48.534;9.062;2023-03-12T14:49:29;96623.97;;;13.50;51.32
76611;BME280;65503;48.534;9.062;2023-03-12T14:51:56;96617.78;;;13.71;50.82
76611;BME280;65503;48.534;9.062;2023-03-12T14:54:26;96622.88;;;13.41;51.28